SBSM/RIA METAR and TAF weather

Enter ICAO airport designator
Station Type Date Time Source
SBSM METAR 2024/06/15 23:00 UTC NOAA

SBSM 152300Z 11008KT 4000 BR SCT007 BKN020 OVC070 19/18 Q1016 RETS


Station Type Date Time Source
SBSM Decoded METAR 2024/06/15 23:00 UTC NOAA

Santa Maria Aero-Porto , Brazil (SBSM) 29-43S 053-42W
Jun 15, 2024 - 07:00 PM EDT / 2024.06.15 2300 UTC
Wind: from the ESE (110 degrees) at 9 MPH (8 KT):0
Visibility: 2 mile(s):0
Sky conditions: overcast
Weather: mist
Temperature: 66 F (19 C)
Dew Point: 64 F (18 C)
Relative Humidity: 93%
Pressure (altimeter): 30.00 in. Hg (1016 hPa)
ob: SBSM 152300Z 11008KT 4000 BR SCT007 BKN020 OVC070 19/18 Q1016 RETS
cycle: 23

Station Type Date Time Source
SBSM TAF 2024/06/15 18:33 UTC NOAA